createdAt,value
2022-12-08T00:02:25.004Z,100306.75
2022-12-08T00:05:10.294Z,100304.16
2022-12-08T00:07:57.199Z,100291.19
2022-12-08T00:10:47.849Z,100284.97
2022-12-08T00:13:10.422Z,100277.88
2022-12-08T00:15:36.979Z,100282.97
2022-12-08T00:18:03.525Z,100278.47
2022-12-08T00:20:30.160Z,100279.59
2022-12-08T00:22:56.639Z,100271.47
2022-12-08T00:25:23.192Z,100264.16
2022-12-08T00:27:49.678Z,100255.53
2022-12-08T00:30:16.756Z,100257.78
2022-12-08T00:32:43.254Z,100256.13
2022-12-08T00:35:09.946Z,100259.06
2022-12-08T00:37:36.554Z,100256.94
2022-12-08T00:40:03.322Z,100249.72
2022-12-08T00:42:30.245Z,100259.69
2022-12-08T00:44:56.943Z,100245.38
2022-12-08T00:47:25.123Z,100251.53
2022-12-08T00:49:52.061Z,100243.06
2022-12-08T00:52:18.711Z,100241.13
2022-12-08T00:54:45.315Z,100236.72
2022-12-08T00:57:11.844Z,100234.56
2022-12-08T00:59:38.442Z,100235.84
2022-12-08T01:02:05.929Z,100236.22
2022-12-08T01:04:32.591Z,100235.22
2022-12-08T01:06:59.118Z,100228.72
2022-12-08T01:09:25.613Z,100235.22
2022-12-08T01:11:52.201Z,100229.16
2022-12-08T01:14:18.795Z,100229.47
2022-12-08T01:16:45.482Z,100228.06
2022-12-08T01:19:13.276Z,100229.16
2022-12-08T01:21:40.517Z,100224.25
2022-12-08T01:24:07.856Z,100222.19
2022-12-08T01:26:34.500Z,100218.59
2022-12-08T01:29:01.856Z,100217.47
2022-12-08T01:31:28.604Z,100218.41
2022-12-08T01:33:55.172Z,100212.41
2022-12-08T01:36:25.791Z,100205.56
2022-12-08T01:38:53.327Z,100211.56
2022-12-08T01:41:21.480Z,100223.00
2022-12-08T01:43:55.391Z,100210.09
2022-12-08T01:46:22.314Z,100212.38
2022-12-08T01:48:50.127Z,100209.28
2022-12-08T01:51:17.114Z,100209.59
2022-12-08T01:53:43.738Z,100212.03
2022-12-08T01:56:17.594Z,100208.22
2022-12-08T01:58:46.670Z,100207.66
2022-12-08T02:01:13.271Z,100203.59
2022-12-08T02:03:42.791Z,100209.63
2022-12-08T02:06:10.069Z,100202.97
2022-12-08T02:08:38.580Z,100207.88
2022-12-08T02:11:05.821Z,100203.16
2022-12-08T02:13:32.828Z,100203.03
2022-12-08T02:15:59.325Z,100201.06
2022-12-08T02:18:41.342Z,100203.03
2022-12-08T02:21:26.406Z,100192.91
2022-12-08T02:24:14.180Z,100190.28
2022-12-08T02:26:49.758Z,100194.06
2022-12-08T02:29:25.124Z,100191.56
2022-12-08T02:32:06.971Z,100183.72
2022-12-08T02:35:02.578Z,100186.75
2022-12-08T02:37:34.273Z,100176.97
2022-12-08T02:40:10.364Z,100174.16
2022-12-08T02:42:36.940Z,100174.44
2022-12-08T02:45:12.595Z,100175.31
2022-12-08T02:47:40.121Z,100175.78
2022-12-08T02:50:07.221Z,100175.50
2022-12-08T02:52:33.716Z,100167.34
2022-12-08T02:55:06.477Z,100173.59
2022-12-08T02:57:45.046Z,100161.00
2022-12-08T03:00:14.013Z,100155.28
2022-12-08T03:02:40.703Z,100150.06
2022-12-08T03:05:22.004Z,100145.81
2022-12-08T03:07:57.384Z,100141.53
2022-12-08T03:10:35.753Z,100132.47
2022-12-08T03:13:08.211Z,100134.47
2022-12-08T03:15:36.679Z,100134.34
2022-12-08T03:18:04.120Z,100133.69
2022-12-08T03:20:31.875Z,100133.75
2022-12-08T03:23:00.184Z,100122.19
2022-12-08T03:25:27.994Z,100120.22
2022-12-08T03:27:54.663Z,100119.44
2022-12-08T03:30:21.538Z,100116.38
2022-12-08T03:33:08.401Z,100107.56
2022-12-08T03:35:37.206Z,100104.03
2022-12-08T03:38:03.720Z,100106.94
2022-12-08T03:40:30.210Z,100103.47
2022-12-08T03:42:56.673Z,100109.00
2022-12-08T03:45:23.217Z,100104.84
2022-12-08T03:47:49.816Z,100101.59
2022-12-08T03:50:16.334Z,100095.84
2022-12-08T03:52:42.892Z,100102.50
2022-12-08T03:55:09.672Z,100097.63
2022-12-08T03:57:36.229Z,100098.25
2022-12-08T04:00:04.477Z,100100.69
2022-12-08T04:02:31.846Z,100100.00
2022-12-08T04:04:58.363Z,100102.50
2022-12-08T04:07:24.888Z,100095.53
2022-12-08T04:09:51.375Z,100101.13
2022-12-08T04:12:17.891Z,100092.84
2022-12-08T04:14:44.382Z,100091.53
2022-12-08T04:17:10.885Z,100090.75
2022-12-08T04:19:37.583Z,100089.28
2022-12-08T04:22:04.299Z,100089.34
2022-12-08T04:24:31.030Z,100081.03
2022-12-08T04:26:57.679Z,100087.16
2022-12-08T04:29:24.544Z,100090.38
2022-12-08T04:31:51.206Z,100087.13
2022-12-08T04:34:17.968Z,100082.19
2022-12-08T04:36:44.664Z,100087.28
2022-12-08T04:39:11.275Z,100086.47
2022-12-08T04:41:37.935Z,100084.22
2022-12-08T04:44:04.803Z,100082.50
2022-12-08T04:46:31.544Z,100080.34
2022-12-08T04:48:58.107Z,100077.28
2022-12-08T04:51:24.697Z,100073.09
2022-12-08T04:53:51.267Z,100078.91
2022-12-08T04:56:18.675Z,100079.72
2022-12-08T04:58:45.898Z,100077.94
2022-12-08T05:01:13.009Z,100070.63
2022-12-08T05:03:39.649Z,100071.28
2022-12-08T05:06:06.332Z,100080.97
2022-12-08T05:08:33.069Z,100070.94
2022-12-08T05:11:06.400Z,100067.03
2022-12-08T05:13:33.047Z,100075.03
2022-12-08T05:16:06.108Z,100070.13
2022-12-08T05:18:32.671Z,100069.91
2022-12-08T05:20:59.264Z,100062.66
2022-12-08T05:23:26.496Z,100065.19
2022-12-08T05:25:53.185Z,100058.03
2022-12-08T05:28:40.879Z,100059.72
2022-12-08T05:31:06.747Z,100063.63
2022-12-08T05:33:33.364Z,100062.63
2022-12-08T05:35:59.976Z,100068.59
2022-12-08T05:38:26.669Z,100064.59
2022-12-08T05:40:53.364Z,100054.47
2022-12-08T05:43:20.046Z,100055.94
2022-12-08T05:45:46.791Z,100052.31
2022-12-08T05:48:13.537Z,100050.06
2022-12-08T05:50:40.409Z,100046.59
2022-12-08T05:53:07.076Z,100044.97
2022-12-08T05:55:33.745Z,100049.56
2022-12-08T05:58:04.639Z,100041.16
2022-12-08T06:00:34.890Z,100043.44
2022-12-08T06:03:01.608Z,100042.50
2022-12-08T06:05:28.385Z,100035.00
2022-12-08T06:07:55.069Z,100040.09
2022-12-08T06:10:21.773Z,100040.91
2022-12-08T06:12:48.421Z,100048.47
2022-12-08T06:15:15.118Z,100039.19
2022-12-08T06:17:41.789Z,100042.44
2022-12-08T06:20:08.677Z,100044.06
2022-12-08T06:22:35.409Z,100040.00
2022-12-08T06:25:04.978Z,100037.13
2022-12-08T06:27:34.101Z,100037.53
2022-12-08T06:30:00.861Z,100041.31
2022-12-08T06:32:27.852Z,100040.78
2022-12-08T06:34:54.455Z,100044.88
2022-12-08T06:37:21.019Z,100046.59
2022-12-08T06:39:47.505Z,100042.81
2022-12-08T06:42:33.005Z,100047.81
2022-12-08T06:44:59.920Z,100048.09
2022-12-08T06:47:26.644Z,100042.81
2022-12-08T06:49:53.267Z,100041.88
2022-12-08T06:52:19.891Z,100047.38
2022-12-08T06:54:46.354Z,100042.44
2022-12-08T06:57:12.802Z,100037.81
2022-12-08T06:59:39.733Z,100035.16
2022-12-08T07:02:06.457Z,100043.34
2022-12-08T07:04:33.023Z,100039.69
2022-12-08T07:06:59.600Z,100042.13
2022-12-08T07:09:26.137Z,100048.47
2022-12-08T07:11:52.811Z,100039.06
2022-12-08T07:14:23.563Z,100046.72
2022-12-08T07:16:53.168Z,100048.28
2022-12-08T07:19:19.828Z,100049.09
2022-12-08T07:21:46.448Z,100050.53
2022-12-08T07:24:13.305Z,100057.28
2022-12-08T07:26:40.133Z,100044.31
2022-12-08T07:29:06.806Z,100054.38
2022-12-08T07:31:34.292Z,100051.09
2022-12-08T07:34:00.826Z,100043.75
2022-12-08T07:36:27.389Z,100041.19
2022-12-08T07:38:54.062Z,100043.97
2022-12-08T07:41:23.306Z,100035.16
2022-12-08T07:43:50.687Z,100026.19
2022-12-08T07:46:18.533Z,100027.16
2022-12-08T07:48:45.127Z,100031.56
2022-12-08T07:51:13.660Z,100035.16
2022-12-08T07:53:42.704Z,100026.59
2022-12-08T07:56:10.616Z,100031.28
2022-12-08T07:58:37.382Z,100026.81
2022-12-08T08:01:04.593Z,100022.13
2022-12-08T08:03:31.673Z,100021.78
2022-12-08T08:06:04.593Z,100028.53
2022-12-08T08:08:31.660Z,100022.81
2022-12-08T08:10:58.426Z,100023.66
2022-12-08T08:13:25.040Z,100031.56
2022-12-08T08:15:51.687Z,100031.56
2022-12-08T08:18:18.359Z,100030.94
2022-12-08T08:20:45.028Z,100028.97
2022-12-08T08:23:11.714Z,100019.75
2022-12-08T08:25:38.187Z,100027.41
2022-12-08T08:28:04.767Z,100031.03
2022-12-08T08:30:31.369Z,100030.66
2022-12-08T08:32:58.026Z,100030.41
2022-12-08T08:35:25.709Z,100030.56
2022-12-08T08:37:52.205Z,100031.56
2022-12-08T08:40:18.799Z,100024.75
2022-12-08T08:42:45.332Z,100025.22
2022-12-08T08:45:12.033Z,100019.91
2022-12-08T08:47:38.608Z,100020.09
2022-12-08T08:50:05.809Z,100022.66
2022-12-08T08:52:32.625Z,100020.38
2022-12-08T08:54:59.203Z,100024.97
2022-12-08T08:57:26.394Z,100020.56
2022-12-08T08:59:53.352Z,100029.19
2022-12-08T09:02:20.291Z,100028.72
2022-12-08T09:04:47.097Z,100018.63
2022-12-08T09:07:14.146Z,100020.41
2022-12-08T09:09:40.675Z,100015.91
2022-12-08T09:12:07.945Z,100024.72
2022-12-08T09:14:34.514Z,100020.81
2022-12-08T09:17:01.042Z,100018.22
2022-12-08T09:19:27.627Z,100024.56
2022-12-08T09:21:54.241Z,100015.63
2022-12-08T09:24:20.791Z,100019.91
2022-12-08T09:26:47.471Z,100012.72
2022-12-08T09:29:14.725Z,100019.59
2022-12-08T09:31:41.325Z,100015.66
2022-12-08T09:34:08.018Z,100016.19
2022-12-08T09:36:34.667Z,100014.72
2022-12-08T09:39:01.315Z,100016.34
2022-12-08T09:41:48.608Z,100013.09
2022-12-08T09:44:34.310Z,100018.28
2022-12-08T09:47:02.252Z,100019.25
2022-12-08T09:50:01.653Z,100016.97
2022-12-08T09:52:33.555Z,100013.09
2022-12-08T09:55:03.164Z,100010.66
2022-12-08T09:57:31.965Z,100021.88
2022-12-08T10:00:01.258Z,100008.06
2022-12-08T10:02:29.453Z,100000.41
2022-12-08T10:04:56.777Z,99997.53
2022-12-08T10:07:23.338Z,99985.94
2022-12-08T10:09:58.668Z,99982.53
2022-12-08T10:12:34.807Z,99980.31
2022-12-08T10:15:20.188Z,99981.91
2022-12-08T10:17:51.160Z,99979.47
2022-12-08T10:20:19.929Z,99983.84
2022-12-08T10:22:50.838Z,99981.91
2022-12-08T10:25:22.296Z,99981.91
2022-12-08T10:27:51.327Z,99976.06
2022-12-08T10:30:19.160Z,99978.84
2022-12-08T10:32:48.334Z,99967.94
2022-12-08T10:35:16.025Z,99969.41
2022-12-08T10:37:54.605Z,99965.81
2022-12-08T10:40:21.619Z,99965.69
2022-12-08T10:42:50.933Z,99967.63
2022-12-08T10:45:30.664Z,99963.88
2022-12-08T10:47:59.533Z,99958.34
2022-12-08T10:50:42.469Z,99960.47
2022-12-08T10:53:09.056Z,99958.34
2022-12-08T10:55:43.496Z,99954.94
2022-12-08T10:58:30.265Z,99961.78
2022-12-08T11:01:03.062Z,99962.13
2022-12-08T11:03:31.473Z,99953.34
2022-12-08T11:06:09.034Z,99952.53
2022-12-08T11:08:45.601Z,99953.19
2022-12-08T11:11:12.147Z,99947.16
2022-12-08T11:13:41.191Z,99953.66
2022-12-08T11:16:08.293Z,99945.38
2022-12-08T11:18:42.305Z,99941.00
2022-12-08T11:21:14.027Z,99945.84
2022-12-08T11:23:41.581Z,99933.19
2022-12-08T11:26:13.007Z,99933.66
2022-12-08T11:28:39.742Z,99939.53
2022-12-08T11:31:32.713Z,99931.72
2022-12-08T11:33:59.234Z,99924.41
2022-12-08T11:36:27.212Z,99923.75
2022-12-08T11:38:57.358Z,99918.72
2022-12-08T11:41:32.018Z,99912.03
2022-12-08T11:44:01.299Z,99912.53
2022-12-08T11:46:32.471Z,99907.31
2022-12-08T11:49:06.647Z,99904.72
2022-12-08T11:51:36.522Z,99907.03
2022-12-08T11:54:12.442Z,99899.38
2022-12-08T11:56:46.928Z,99902.63
2022-12-08T11:59:25.385Z,99897.09
2022-12-08T12:01:52.260Z,99897.44
2022-12-08T12:04:32.300Z,99897.09
2022-12-08T12:07:26.602Z,99895.97
2022-12-08T12:10:08.322Z,99889.91
2022-12-08T12:12:40.816Z,99887.81
2022-12-08T12:15:15.934Z,99887.34
2022-12-08T12:18:01.486Z,99885.22
2022-12-08T12:20:30.729Z,99888.97
2022-12-08T12:23:08.535Z,99886.84
2022-12-08T12:25:36.102Z,99880.66
2022-12-08T12:28:05.396Z,99882.44
2022-12-08T12:30:52.168Z,99883.09
2022-12-08T12:33:20.402Z,99880.50
2022-12-08T12:35:49.981Z,99879.22
2022-12-08T12:38:42.900Z,99880.19
2022-12-08T12:41:10.640Z,99877.56
2022-12-08T12:43:38.150Z,99865.38
2022-12-08T12:46:23.203Z,99874.81
2022-12-08T12:48:50.440Z,99861.31
2022-12-08T12:51:35.301Z,99863.59
2022-12-08T12:54:21.018Z,99862.28
2022-12-08T12:57:07.470Z,99863.59
2022-12-08T12:59:39.978Z,99861.97
2022-12-08T13:02:16.503Z,99864.72
2022-12-08T13:04:52.262Z,99867.31
2022-12-08T13:07:23.722Z,99866.19
2022-12-08T13:09:56.032Z,99868.78
2022-12-08T13:12:23.924Z,99874.16
2022-12-08T13:14:51.121Z,99866.19
2022-12-08T13:17:24.966Z,99865.53
2022-12-08T13:19:54.526Z,99853.97
2022-12-08T13:22:39.885Z,99861.13
2022-12-08T13:25:25.271Z,99854.50
2022-12-08T13:27:53.377Z,99856.44
2022-12-08T13:30:35.489Z,99852.19
2022-12-08T13:33:17.796Z,99851.22
2022-12-08T13:35:47.913Z,99851.22
2022-12-08T13:38:19.342Z,99846.66
2022-12-08T13:40:46.336Z,99844.22
2022-12-08T13:43:37.271Z,99846.34
2022-12-08T13:46:57.935Z,99839.19
2022-12-08T13:55:25.929Z,99834.78
2022-12-08T13:57:28.776Z,99832.03
2022-12-08T13:59:59.509Z,99840.16
2022-12-08T14:02:45.485Z,99843.72
2022-12-08T14:05:19.000Z,99838.19
2022-12-08T14:07:47.531Z,99843.09
2022-12-08T14:10:17.527Z,99852.19
2022-12-08T14:12:46.069Z,99855.31
2022-12-08T14:15:14.228Z,99849.25
2022-12-08T14:17:40.751Z,99845.03
2022-12-08T14:20:07.566Z,99849.09
2022-12-08T14:22:35.158Z,99852.84
2022-12-08T14:25:02.346Z,99853.84
2022-12-08T14:27:33.700Z,99847.31
2022-12-08T14:30:01.547Z,99853.00
2022-12-08T14:32:30.392Z,99843.06
2022-12-08T14:35:02.640Z,99857.72
2022-12-08T14:37:32.769Z,99848.78
2022-12-08T14:40:22.688Z,99853.97
2022-12-08T14:43:07.943Z,99849.78
2022-12-08T14:45:54.708Z,99850.56
2022-12-08T14:48:36.516Z,99853.50
2022-12-08T14:51:03.032Z,99847.47
2022-12-08T14:53:35.753Z,99853.31
2022-12-08T14:56:06.660Z,99855.94
2022-12-08T14:58:33.384Z,99852.03
2022-12-08T15:01:00.898Z,99848.31
2022-12-08T15:03:28.729Z,99847.00
2022-12-08T15:05:56.869Z,99848.31
2022-12-08T15:08:24.106Z,99847.00
2022-12-08T15:11:09.503Z,99843.44
2022-12-08T15:13:43.690Z,99840.16
2022-12-08T15:16:27.318Z,99847.50
2022-12-08T15:19:16.289Z,99843.72
2022-12-08T15:21:44.002Z,99845.03
2022-12-08T15:24:11.770Z,99840.03
2022-12-08T15:26:45.703Z,99844.72
2022-12-08T15:29:14.203Z,99844.06
2022-12-08T15:31:40.744Z,99844.25
2022-12-08T15:34:07.476Z,99847.00
2022-12-08T15:36:34.116Z,99845.19
2022-12-08T15:39:00.839Z,99843.44
2022-12-08T15:41:27.466Z,99841.78
2022-12-08T15:43:54.125Z,99837.91
2022-12-08T15:46:20.789Z,99835.59
2022-12-08T15:48:47.523Z,99830.09
2022-12-08T15:51:13.982Z,99829.09
2022-12-08T15:53:40.789Z,99829.28
2022-12-08T15:58:55.970Z,99835.44
2022-12-08T16:01:24.106Z,99831.38
2022-12-08T16:07:19.818Z,99835.28
2022-12-08T16:09:26.991Z,99833.84
2022-12-08T16:12:12.222Z,99837.56
2022-12-08T16:17:26.532Z,99832.19
2022-12-08T16:19:53.489Z,99833.31
2022-12-08T16:25:18.625Z,99836.59
2022-12-08T16:28:12.411Z,99837.38
2022-12-08T16:30:32.390Z,99827.63
2022-12-08T16:32:59.067Z,99832.19
2022-12-08T16:35:25.582Z,99829.41
2022-12-08T16:37:52.154Z,99825.84
2022-12-08T16:40:18.877Z,99831.72
2022-12-08T16:42:50.043Z,99841.47
2022-12-08T16:45:21.258Z,99842.13
2022-12-08T16:47:49.304Z,99844.06
2022-12-08T16:50:17.348Z,99842.91
2022-12-08T16:52:44.515Z,99837.06
2022-12-08T16:55:12.374Z,99835.78
2022-12-08T16:57:39.306Z,99841.13
2022-12-08T17:00:07.496Z,99842.44
2022-12-08T17:02:34.755Z,99837.38
2022-12-08T17:05:01.352Z,99840.50
2022-12-08T17:07:28.020Z,99844.38
2022-12-08T17:09:54.767Z,99840.97
2022-12-08T17:12:21.368Z,99836.25
2022-12-08T17:14:47.992Z,99843.72
2022-12-08T17:17:14.462Z,99843.56
2022-12-08T17:19:41.147Z,99839.66
2022-12-08T17:22:07.760Z,99840.97
2022-12-08T17:24:34.324Z,99839.66
2022-12-08T17:27:04.363Z,99835.59
2022-12-08T17:29:31.927Z,99831.34
2022-12-08T17:31:58.769Z,99839.34
2022-12-08T17:34:25.718Z,99834.47
2022-12-08T17:36:52.269Z,99826.66
2022-12-08T17:39:19.310Z,99822.25
2022-12-08T17:41:46.482Z,99828.44
2022-12-08T17:44:14.445Z,99822.91
2022-12-08T17:46:44.292Z,99815.59
2022-12-08T17:49:18.471Z,99823.06
2022-12-08T17:51:49.296Z,99822.91
2022-12-08T17:54:16.957Z,99827.50
2022-12-08T17:56:43.721Z,99823.56
2022-12-08T17:59:10.818Z,99814.13
2022-12-08T18:01:37.881Z,99815.91
2022-12-08T18:04:05.876Z,99811.06
2022-12-08T18:06:32.936Z,99816.72
2022-12-08T18:09:00.118Z,99815.78
2022-12-08T18:11:27.295Z,99824.53
2022-12-08T18:13:54.412Z,99819.34
2022-12-08T18:16:21.979Z,99825.19
2022-12-08T18:18:48.859Z,99825.38
2022-12-08T18:21:21.560Z,99826.81
2022-12-08T18:23:50.284Z,99819.00
2022-12-08T18:26:17.014Z,99822.63
2022-12-08T18:28:43.738Z,99820.81
2022-12-08T18:31:14.789Z,99818.69
2022-12-08T18:33:42.781Z,99812.50
2022-12-08T18:36:14.167Z,99815.13
2022-12-08T18:38:40.847Z,99809.91
2022-12-08T18:41:08.462Z,99808.63
2022-12-08T18:43:35.196Z,99810.56
2022-12-08T18:46:02.589Z,99811.88
2022-12-08T18:48:29.314Z,99808.97
2022-12-08T18:50:55.820Z,99816.44
2022-12-08T18:53:22.634Z,99809.25
2022-12-08T18:55:50.932Z,99811.84
2022-12-08T18:58:17.801Z,99812.50
2022-12-08T19:00:44.317Z,99802.78
2022-12-08T19:03:11.502Z,99802.91
2022-12-08T19:05:38.293Z,99807.63
2022-12-08T19:08:04.915Z,99799.03
2022-12-08T19:10:32.194Z,99806.31
2022-12-08T19:12:58.756Z,99812.50
2022-12-08T19:15:25.396Z,99802.44
2022-12-08T19:17:51.963Z,99806.66
2022-12-08T19:20:18.632Z,99809.59
2022-12-08T19:22:45.371Z,99812.84
2022-12-08T19:25:12.298Z,99823.88
2022-12-08T19:27:38.851Z,99819.66
2022-12-08T19:30:05.985Z,99820.81
2022-12-08T19:32:32.968Z,99818.22
2022-12-08T19:34:59.633Z,99827.31
2022-12-08T19:37:26.488Z,99818.53
2022-12-08T19:40:11.311Z,99828.78
2022-12-08T19:42:56.156Z,99821.97
2022-12-08T19:45:22.916Z,99820.31
2022-12-08T19:47:49.726Z,99822.63
2022-12-08T19:50:35.215Z,99813.03
2022-12-08T19:53:02.439Z,99816.09
2022-12-08T19:55:28.942Z,99821.16
2022-12-08T19:57:57.076Z,99816.09
2022-12-08T20:00:23.933Z,99821.97
2022-12-08T20:02:50.626Z,99823.56
2022-12-08T20:05:17.293Z,99816.75
2022-12-08T20:07:43.878Z,99811.88
2022-12-08T20:10:36.911Z,99812.88
2022-12-08T20:13:22.804Z,99810.91
2022-12-08T20:15:49.853Z,99813.84
2022-12-08T20:18:17.057Z,99805.84
2022-12-08T20:20:44.353Z,99814.31
2022-12-08T20:23:13.341Z,99807.97
2022-12-08T20:25:43.887Z,99813.84
2022-12-08T20:28:10.709Z,99811.22
2022-12-08T20:30:44.958Z,99814.50
2022-12-08T20:33:13.152Z,99815.47
2022-12-08T20:35:39.756Z,99812.53
2022-12-08T20:38:06.435Z,99808.63
2022-12-08T20:40:32.925Z,99814.16
2022-12-08T20:42:59.605Z,99806.34
2022-12-08T20:45:26.229Z,99805.69
2022-12-08T20:47:52.846Z,99800.03
2022-12-08T20:50:19.556Z,99804.88
2022-12-08T20:52:46.105Z,99805.53
2022-12-08T20:55:12.761Z,99795.28
2022-12-08T20:57:39.276Z,99801.16
2022-12-08T21:00:06.722Z,99798.88
2022-12-08T21:02:33.740Z,99801.31
2022-12-08T21:05:00.629Z,99805.69
2022-12-08T21:07:27.281Z,99801.44
2022-12-08T21:09:54.797Z,99800.34
2022-12-08T21:12:21.591Z,99802.06
2022-12-08T21:14:48.352Z,99809.97
2022-12-08T21:17:15.451Z,99815.00
2022-12-08T21:19:42.177Z,99809.88
2022-12-08T21:22:08.835Z,99806.22
2022-12-08T21:24:35.522Z,99808.13
2022-12-08T21:27:02.294Z,99807.75
2022-12-08T21:29:28.926Z,99817.28
2022-12-08T21:32:00.159Z,99807.34
2022-12-08T21:34:31.778Z,99818.84
2022-12-08T21:36:58.753Z,99812.81
2022-12-08T21:39:25.597Z,99812.28
2022-12-08T21:42:11.192Z,99813.69
2022-12-08T21:44:38.125Z,99814.97
2022-12-08T21:47:05.035Z,99815.56
2022-12-08T21:49:32.406Z,99814.69
2022-12-08T21:51:59.194Z,99816.66
2022-12-08T21:54:25.893Z,99814.47
2022-12-08T21:56:52.653Z,99820.84
2022-12-08T21:59:20.801Z,99820.50
2022-12-08T22:01:47.861Z,99819.66
2022-12-08T22:04:18.417Z,99816.41
2022-12-08T22:06:45.307Z,99817.59
2022-12-08T22:09:13.463Z,99819.00
2022-12-08T22:11:40.505Z,99818.06
2022-12-08T22:14:12.471Z,99815.34
2022-12-08T22:16:41.026Z,99812.97
2022-12-08T22:19:07.564Z,99817.06
2022-12-08T22:21:34.410Z,99811.19
2022-12-08T22:24:01.407Z,99808.47
2022-12-08T22:26:28.211Z,99813.72
2022-12-08T22:28:55.034Z,99810.44
2022-12-08T22:31:21.808Z,99812.06
2022-12-08T22:33:49.416Z,99806.69
2022-12-08T22:36:16.506Z,99804.09
2022-12-08T22:38:43.162Z,99806.84
2022-12-08T22:41:09.793Z,99805.56
2022-12-08T22:43:37.335Z,99803.19
2022-12-08T22:46:11.854Z,99799.75
2022-12-08T22:48:39.410Z,99804.31
2022-12-08T22:51:06.703Z,99800.47
2022-12-08T22:53:33.693Z,99798.22
2022-12-08T22:56:03.841Z,99800.50
2022-12-08T22:58:30.726Z,99799.84
2022-12-08T23:00:57.330Z,99799.50
2022-12-08T23:03:24.232Z,99796.47
2022-12-08T23:05:51.015Z,99804.09
2022-12-08T23:08:18.284Z,99801.00
2022-12-08T23:10:47.324Z,99796.13
2022-12-08T23:13:14.809Z,99802.47
2022-12-08T23:15:41.468Z,99802.13
2022-12-08T23:18:08.604Z,99798.41
2022-12-08T23:20:35.186Z,99799.25
2022-12-08T23:23:02.242Z,99807.66
2022-12-08T23:25:28.896Z,99805.25
2022-12-08T23:27:55.550Z,99801.00
2022-12-08T23:30:22.237Z,99801.19
2022-12-08T23:32:48.886Z,99802.47
2022-12-08T23:35:15.799Z,99798.91
2022-12-08T23:37:42.301Z,99801.34
2022-12-08T23:40:09.146Z,99794.63
2022-12-08T23:42:35.883Z,99793.97
2022-12-08T23:45:04.325Z,99792.84
2022-12-08T23:47:31.140Z,99787.00
2022-12-08T23:49:57.764Z,99788.44
2022-12-08T23:52:24.404Z,99786.84
2022-12-08T23:54:51.189Z,99781.47
2022-12-08T23:57:17.953Z,99777.75
2022-12-08T23:59:44.599Z,99774.47
